Time;durP1;ratioP1;P1;durP2;ratioP2;P2;SDS_P1;SDS_P2;PMS_P1;PMS_P2;Temp;Humidity;BMP_temperature;BMP_pressure;BME280_temperature;BME280_humidity;BME280_pressure;Samples;Min_cycle;Max_cycle;Signal;HPM_P1;HPM_P2
2021/12/07 00:00:12;;;;;;;0.30;0.30;;;2.80;97.20;;;;;;4955003;29;20211;-75
2021/12/07 00:02:38;;;;;;;0.30;0.30;;;2.90;97.00;;;;;;4955961;28;20301;-76
2021/12/07 00:05:05;;;;;;;0.30;0.30;;;3.00;96.90;;;;;;4955945;29;20681;-75
2021/12/07 00:07:31;;;;;;;0.30;0.30;;;3.00;96.70;;;;;;4955801;28;20179;-75
2021/12/07 00:09:57;;;;;;;0.30;0.30;;;2.90;96.60;;;;;;4954710;29;20598;-76
2021/12/07 00:12:22;;;;;;;0.30;0.30;;;2.70;96.90;;;;;;4956109;28;20203;-74
2021/12/07 00:14:48;;;;;;;0.30;0.30;;;2.80;97.40;;;;;;4955766;28;20200;-76
2021/12/07 00:17:15;;;;;;;0.30;0.30;;;2.90;97.00;;;;;;4955697;28;20592;-76
2021/12/07 00:19:41;;;;;;;0.30;0.30;;;3.00;96.90;;;;;;4955953;28;20883;-75
2021/12/07 00:22:09;;;;;;;0.38;0.38;;;2.80;96.70;;;;;;4955771;29;20191;-76
2021/12/07 00:24:35;;;;;;;0.40;0.40;;;2.90;97.00;;;;;;4954380;29;20267;-75
2021/12/07 00:27:00;;;;;;;0.40;0.40;;;2.90;96.90;;;;;;4956048;28;20179;-76
2021/12/07 00:29:27;;;;;;;0.40;0.40;;;2.80;96.90;;;;;;4955502;29;20654;-75
2021/12/07 00:32:07;;;;;;;0.40;0.40;;;2.80;97.00;;;;;;4955481;28;20273;-75
2021/12/07 00:36:59;;;;;;;0.30;0.30;;;3.00;96.90;;;;;;4955716;29;20250;-76
2021/12/07 00:39:26;;;;;;;0.40;0.40;;;3.10;96.90;;;;;;4955507;28;20811;-75
2021/12/07 00:41:53;;;;;;;0.40;0.40;;;2.80;96.60;;;;;;4954924;28;20258;-75
2021/12/07 00:44:21;;;;;;;0.40;0.40;;;2.70;97.00;;;;;;4955454;28;20176;-76
2021/12/07 00:46:48;;;;;;;0.38;0.38;;;2.80;97.30;;;;;;4955467;28;20183;-76
2021/12/07 00:49:14;;;;;;;0.40;0.40;;;2.80;97.20;;;;;;4955366;28;20533;-75
2021/12/07 00:51:40;;;;;;;0.35;0.35;;;2.90;97.30;;;;;;4955401;29;20216;-76
2021/12/07 00:54:07;;;;;;;0.30;0.30;;;2.90;97.20;;;;;;4955230;28;20215;-76
2021/12/07 00:56:33;;;;;;;0.40;0.40;;;2.90;97.10;;;;;;4955332;28;20267;-76
2021/12/07 00:58:59;;;;;;;0.40;0.40;;;2.80;97.20;;;;;;4955057;28;20267;-76
2021/12/07 01:01:25;;;;;;;0.33;0.33;;;2.80;97.40;;;;;;4955568;29;20411;-75
2021/12/07 01:03:51;;;;;;;0.40;0.40;;;2.90;97.70;;;;;;4955245;29;20415;-75
2021/12/07 01:25:28;;;;;;;0.40;0.40;;;3.00;98.50;;;;;;4955545;29;20190;-76
2021/12/07 01:27:58;;;;;;;0.30;0.30;;;2.70;98.60;;;;;;4953665;29;20231;-75
2021/12/07 01:30:38;;;;;;;0.30;0.30;;;2.70;99.30;;;;;;4953799;29;20188;-76
2021/12/07 01:39:35;;;;;;;0.40;0.40;;;2.80;99.50;;;;;;4955008;28;20203;-74
2021/12/07 01:42:45;;;;;;;0.40;0.40;;;2.70;99.50;;;;;;4954979;29;20270;-75
2021/12/07 01:50:30;;;;;;;0.30;0.30;;;2.80;99.70;;;;;;4955203;28;20190;-75
2021/12/07 02:00:41;;;;;;;0.30;0.30;;;3.00;99.40;;;;;;4946346;28;20201;-75
2021/12/07 02:03:06;;;;;;;0.30;0.30;;;3.00;99.60;;;;;;4956860;29;20208;-76
2021/12/07 02:05:33;;;;;;;0.30;0.30;;;3.10;99.70;;;;;;4958173;29;20644;-75
2021/12/07 02:07:59;;;;;;;0.30;0.30;;;3.30;99.80;;;;;;4958105;28;20594;-75
2021/12/07 02:10:27;;;;;;;0.30;0.30;;;3.30;99.20;;;;;;4958247;28;20229;-75
2021/12/07 02:13:01;;;;;;;0.40;0.40;;;3.30;99.10;;;;;;4957837;28;20440;-76
2021/12/07 02:15:28;;;;;;;0.40;0.40;;;3.40;99.00;;;;;;4956763;29;20265;-76
2021/12/07 02:17:54;;;;;;;0.30;0.30;;;3.50;98.70;;;;;;4956563;29;20186;-75
2021/12/07 02:20:23;;;;;;;0.30;0.30;;;3.40;98.60;;;;;;4958273;28;20178;-76
2021/12/07 02:22:49;;;;;;;0.40;0.40;;;3.10;98.90;;;;;;4957784;29;20208;-75
2021/12/07 02:25:16;;;;;;;0.30;0.30;;;3.20;99.40;;;;;;4958011;28;20556;-76
2021/12/07 02:27:43;;;;;;;0.30;0.30;;;3.30;99.40;;;;;;4956442;29;20421;-75
2021/12/07 02:30:12;;;;;;;0.30;0.30;;;3.50;99.10;;;;;;4957741;29;20184;-76
2021/12/07 02:32:38;;;;;;;0.30;0.30;;;3.40;98.60;;;;;;4957718;28;20195;-75
2021/12/07 02:35:06;;;;;;;0.30;0.30;;;3.30;98.80;;;;;;4957637;29;20202;-76
2021/12/07 02:37:35;;;;;;;0.32;0.32;;;3.30;98.90;;;;;;4957580;29;20176;-75
2021/12/07 02:40:01;;;;;;;0.30;0.30;;;3.20;99.10;;;;;;4957727;28;20238;-75
2021/12/07 02:42:27;;;;;;;0.30;0.30;;;3.30;99.20;;;;;;4957414;29;20324;-76
2021/12/07 02:44:53;;;;;;;0.32;0.32;;;3.30;99.10;;;;;;4957683;28;20656;-76
2021/12/07 02:47:20;;;;;;;0.30;0.30;;;3.40;99.00;;;;;;4957306;29;20177;-75
2021/12/07 02:49:47;;;;;;;0.30;0.30;;;3.50;99.00;;;;;;4957572;29;20644;-74
2021/12/07 02:52:13;;;;;;;0.30;0.30;;;3.40;98.90;;;;;;4957438;28;20596;-75
2021/12/07 02:54:44;;;;;;;0.40;0.40;;;3.20;99.20;;;;;;4957125;28;20592;-75
2021/12/07 02:57:15;;;;;;;0.30;0.30;;;3.30;99.50;;;;;;4955838;29;20265;-76
2021/12/07 02:59:49;;;;;;;0.30;0.30;;;3.20;99.40;;;;;;4957178;28;20185;-75
2021/12/07 03:02:16;;;;;;;0.40;0.40;;;3.30;99.50;;;;;;4957305;29;20593;-75
2021/12/07 03:04:55;;;;;;;0.30;0.30;;;3.50;99.30;;;;;;4956439;28;20530;-74
2021/12/07 03:07:40;;;;;;;0.32;0.32;;;3.50;99.20;;;;;;4955909;29;20258;-76
2021/12/07 03:26:32;;;;;;;0.40;0.40;;;3.10;99.40;;;;;;4957129;29;20576;-75
2021/12/07 03:29:00;;;;;;;0.30;0.30;;;3.00;99.80;;;;;;4956578;28;20167;-76
2021/12/07 03:31:26;;;;;;;0.30;0.30;;;3.20;99.90;;;;;;4956487;29;20181;-76
2021/12/07 03:33:56;;;;;;;0.30;0.30;;;3.20;99.70;;;;;;4956469;28;20263;-75
2021/12/07 03:36:22;;;;;;;0.30;0.30;;;3.30;99.40;;;;;;4955343;29;20550;-74
2021/12/07 03:38:48;;;;;;;0.30;0.30;;;3.40;99.60;;;;;;4956295;28;20181;-74
2021/12/07 03:41:14;;;;;;;0.30;0.30;;;3.40;99.50;;;;;;4956383;28;20404;-75
2021/12/07 03:43:40;;;;;;;0.30;0.30;;;3.40;99.40;;;;;;4956366;28;20578;-75
2021/12/07 03:46:06;;;;;;;0.30;0.30;;;3.10;99.30;;;;;;4956434;29;20411;-76
2021/12/07 03:48:33;;;;;;;0.30;0.30;;;3.10;99.90;;;;;;4956092;28;20510;-76
2021/12/07 03:50:59;;;;;;;0.35;0.35;;;3.10;99.90;;;;;;4956164;28;20196;-75
2021/12/07 03:53:25;;;;;;;0.40;0.40;;;3.20;99.70;;;;;;4956287;28;20212;-76
2021/12/07 03:55:52;;;;;;;0.40;0.40;;;3.30;99.70;;;;;;4956218;28;20412;-76
2021/12/07 03:58:17;;;;;;;0.38;0.38;;;3.40;99.60;;;;;;4956008;28;20712;-75
2021/12/07 04:00:45;;;;;;;0.30;0.30;;;3.50;99.50;;;;;;4956256;29;20279;-75
2021/12/07 04:03:14;;;;;;;0.40;0.40;;;3.70;99.30;;;;;;4954631;29;20259;-76
2021/12/07 04:05:49;;;;;;;0.30;0.30;;;3.70;98.90;;;;;;4955362;29;20189;-77
2021/12/07 04:08:18;;;;;;;0.30;0.30;;;3.50;99.00;;;;;;4955970;29;20216;-75
2021/12/07 04:10:44;;;;;;;0.40;0.40;;;3.40;99.10;;;;;;4956012;28;20542;-75
2021/12/07 04:13:10;;;;;;;0.30;0.30;;;3.50;99.30;;;;;;4955320;28;20188;-74
2021/12/07 04:15:36;;;;;;;0.30;0.30;;;3.50;99.40;;;;;;4954981;28;20182;-74
2021/12/07 04:18:03;;;;;;;0.30;0.30;;;3.60;99.20;;;;;;4955972;28;20181;-70
2021/12/07 04:20:29;;;;;;;0.40;0.40;;;3.60;99.00;;;;;;4955864;29;20174;-71
2021/12/07 04:22:54;;;;;;;0.40;0.40;;;3.60;98.80;;;;;;4954494;29;20200;-73
2021/12/07 04:25:23;;;;;;;0.30;0.30;;;3.50;98.90;;;;;;4955614;29;20184;-73
2021/12/07 04:27:50;;;;;;;1.85;1.38;;;3.60;99.00;;;;;;4955235;28;20224;-71
2021/12/07 04:30:26;;;;;;;0.30;0.30;;;3.70;98.90;;;;;;4954809;29;20173;-73
2021/12/07 04:32:53;;;;;;;0.38;0.38;;;3.70;98.70;;;;;;4956044;29;20191;-71
2021/12/07 04:35:20;;;;;;;0.30;0.30;;;3.90;98.60;;;;;;4955966;28;20520;-72
2021/12/07 04:37:46;;;;;;;0.30;0.30;;;3.90;98.20;;;;;;4954648;28;20175;-71
2021/12/07 04:40:15;;;;;;;0.40;0.40;;;3.90;98.00;;;;;;4955294;28;20177;-71
2021/12/07 04:42:43;;;;;;;0.30;0.30;;;3.90;97.90;;;;;;4954165;29;20197;-72
2021/12/07 04:45:15;;;;;;;0.30;0.30;;;3.90;97.90;;;;;;4955367;29;20182;-71
2021/12/07 04:47:55;;;;;;;0.40;0.40;;;3.60;98.10;;;;;;4955299;28;20179;-72
2021/12/07 04:58:14;;;;;;;0.40;0.40;;;3.70;97.90;;;;;;4955432;29;20203;-72
2021/12/07 05:00:40;;;;;;;0.40;0.40;;;3.90;97.60;;;;;;4955292;29;20188;-71
2021/12/07 05:03:10;;;;;;;0.30;0.30;;;3.90;97.10;;;;;;4955347;29;21047;-72
2021/12/07 05:05:42;;;;;;;0.30;0.30;;;3.80;96.90;;;;;;4954174;28;20535;-71
2021/12/07 05:08:11;;;;;;;0.40;0.40;;;3.80;96.90;;;;;;4955130;28;20180;-71
2021/12/07 05:11:22;;;;;;;0.30;0.30;;;3.70;96.90;;;;;;4955133;29;20162;-73
2021/12/07 05:13:49;;;;;;;0.40;0.40;;;3.90;97.20;;;;;;4954661;29;20295;-72
2021/12/07 05:24:50;;;;;;;0.32;0.32;;;3.40;97.10;;;;;;4955007;29;20196;-70
2021/12/07 05:38:15;;;;;;;0.40;0.40;;;2.90;97.70;;;;;;4947777;29;20192;-75
2021/12/07 05:40:40;;;;;;;0.40;0.40;;;3.10;98.20;;;;;;4958804;29;20593;-73
2021/12/07 05:43:06;;;;;;;0.40;0.40;;;3.30;98.00;;;;;;4958472;29;20232;-75
2021/12/07 05:45:35;;;;;;;0.30;0.30;;;3.50;97.50;;;;;;4958665;28;20205;-76
2021/12/07 05:48:02;;;;;;;0.30;0.30;;;3.50;96.90;;;;;;4958295;29;20255;-75
2021/12/07 05:50:31;;;;;;;0.40;0.40;;;3.30;97.10;;;;;;4958828;29;20323;-78
2021/12/07 05:52:57;;;;;;;0.40;0.40;;;3.40;97.60;;;;;;4956936;28;20243;-76
2021/12/07 05:55:23;;;;;;;0.32;0.32;;;3.50;97.20;;;;;;4958890;28;20660;-72
2021/12/07 05:57:49;;;;;;;0.32;0.32;;;3.70;97.20;;;;;;4958907;28;20232;-74
2021/12/07 06:00:28;;;;;;;0.37;0.37;;;3.70;96.80;;;;;;4958453;29;20683;-75
2021/12/07 06:02:57;;;;;;;0.30;0.30;;;3.80;96.60;;;;;;4958403;29;20491;-75
2021/12/07 06:05:24;;;;;;;0.38;0.38;;;3.60;96.70;;;;;;4958322;29;20525;-73
2021/12/07 06:07:50;;;;;;;0.30;0.30;;;3.60;96.60;;;;;;4958201;28;20659;-73
2021/12/07 06:10:16;;;;;;;0.30;0.30;;;3.50;96.70;;;;;;4958763;29;20289;-72
2021/12/07 06:12:42;;;;;;;0.30;0.30;;;3.60;96.70;;;;;;4958634;28;20950;-74
2021/12/07 06:15:08;;;;;;;0.30;0.30;;;3.70;96.80;;;;;;4958555;28;20212;-74
2021/12/07 06:17:34;;;;;;;0.38;0.38;;;3.70;96.80;;;;;;4957915;29;20197;-76
2021/12/07 06:20:00;;;;;;;0.30;0.30;;;3.80;96.60;;;;;;4958279;29;20260;-74
2021/12/07 06:22:25;;;;;;;0.37;0.37;;;3.80;96.50;;;;;;4957996;29;20398;-75
2021/12/07 06:24:52;;;;;;;0.37;0.37;;;3.80;96.60;;;;;;4956860;29;20185;-74
2021/12/07 06:27:17;;;;;;;0.30;0.30;;;3.80;96.70;;;;;;4956483;28;20188;-75
2021/12/07 06:29:43;;;;;;;0.30;0.30;;;3.90;96.70;;;;;;4957686;28;20195;-74
2021/12/07 06:32:09;;;;;;;0.30;0.30;;;3.90;96.50;;;;;;4957652;28;20596;-75
2021/12/07 06:34:35;;;;;;;0.40;0.40;;;4.00;96.40;;;;;;4957599;29;20214;-75
2021/12/07 06:37:03;;;;;;;0.40;0.40;;;3.90;96.10;;;;;;4957781;29;20180;-74
2021/12/07 06:39:28;;;;;;;0.40;0.40;;;3.50;96.40;;;;;;4955419;28;20959;-74
2021/12/07 06:41:54;;;;;;;0.30;0.30;;;3.50;97.10;;;;;;4957592;29;20209;-73
2021/12/07 06:44:20;;;;;;;0.30;0.30;;;3.40;97.00;;;;;;4957512;29;20199;-73
2021/12/07 06:46:48;;;;;;;0.37;0.37;;;3.30;97.30;;;;;;4957511;28;20209;-74
2021/12/07 06:49:15;;;;;;;0.40;0.40;;;3.60;97.40;;;;;;4955938;29;20221;-74
2021/12/07 06:51:41;;;;;;;0.40;0.40;;;3.70;96.80;;;;;;4957309;28;20235;-76
2021/12/07 06:54:07;;;;;;;0.40;0.40;;;3.80;96.40;;;;;;4957213;29;20619;-73
2021/12/07 06:56:33;;;;;;;0.33;0.33;;;4.00;96.40;;;;;;4957206;29;20268;-74
2021/12/07 06:58:59;;;;;;;0.33;0.33;;;4.00;96.20;;;;;;4956933;29;20545;-74
2021/12/07 07:01:25;;;;;;;0.33;0.33;;;4.20;96.30;;;;;;4957199;28;20187;-76
2021/12/07 07:03:51;;;;;;;0.40;0.40;;;4.10;96.00;;;;;;4957121;28;20797;-75
2021/12/07 07:06:17;;;;;;;0.40;0.40;;;4.10;96.00;;;;;;4957222;29;20181;-74
2021/12/07 07:08:43;;;;;;;0.40;0.40;;;4.00;96.00;;;;;;4956830;28;20420;-74
2021/12/07 07:11:09;;;;;;;0.35;0.35;;;3.90;96.00;;;;;;4957618;28;20229;-71
2021/12/07 07:13:35;;;;;;;0.33;0.33;;;3.90;96.10;;;;;;4956955;29;20202;-75
2021/12/07 07:16:00;;;;;;;0.40;0.40;;;4.00;95.90;;;;;;4957058;28;20419;-74
2021/12/07 07:18:26;;;;;;;0.30;0.30;;;3.90;95.60;;;;;;4956924;29;20634;-75
2021/12/07 07:20:52;;;;;;;0.30;0.30;;;3.90;95.50;;;;;;4955640;28;20428;-75
2021/12/07 07:23:18;;;;;;;0.40;0.40;;;3.60;95.90;;;;;;4956744;29;20246;-75
2021/12/07 07:25:44;;;;;;;0.30;0.30;;;3.60;96.20;;;;;;4956306;29;20178;-75
2021/12/07 07:28:09;;;;;;;0.40;0.40;;;3.70;96.30;;;;;;4956445;29;20182;-79
2021/12/07 07:30:35;;;;;;;0.30;0.30;;;3.70;96.30;;;;;;4956809;28;20256;-74
2021/12/07 07:33:02;;;;;;;0.30;0.30;;;3.70;96.30;;;;;;4956497;29;20625;-74
2021/12/07 07:35:27;;;;;;;0.40;0.40;;;3.80;96.20;;;;;;4956550;28;20178;-73
2021/12/07 07:37:53;;;;;;;0.40;0.40;;;3.90;96.20;;;;;;4956373;29;20290;-74
2021/12/07 07:40:21;;;;;;;0.30;0.30;;;3.90;96.10;;;;;;4956654;29;20173;-75
2021/12/07 07:42:47;;;;;;;0.30;0.30;;;4.00;96.10;;;;;;4955775;28;20199;-74
2021/12/07 07:45:13;;;;;;;0.40;0.40;;;4.00;95.80;;;;;;4956482;28;20265;-75
2021/12/07 07:47:41;;;;;;;0.30;0.30;;;4.10;95.70;;;;;;4956329;28;20185;-73
2021/12/07 07:50:09;;;;;;;0.30;0.30;;;4.10;95.70;;;;;;4956254;28;20192;-74
2021/12/07 07:52:34;;;;;;;0.40;0.40;;;3.80;95.60;;;;;;4956257;28;20194;-74
2021/12/07 07:55:00;;;;;;;0.30;0.30;;;3.70;95.90;;;;;;4956120;29;20209;-75
2021/12/07 07:57:27;;;;;;;0.30;0.30;;;3.80;96.10;;;;;;4956017;28;20452;-73
2021/12/07 07:59:53;;;;;;;0.40;0.40;;;3.90;96.00;;;;;;4955928;28;20427;-73
2021/12/07 08:02:19;;;;;;;0.30;0.30;;;3.90;95.80;;;;;;4956165;29;20280;-74
2021/12/07 08:04:46;;;;;;;0.40;0.40;;;3.60;95.20;;;;;;4954781;29;20177;-74
2021/12/07 08:07:12;;;;;;;0.40;0.40;;;3.80;95.70;;;;;;4956013;28;20189;-74
2021/12/07 08:09:37;;;;;;;0.40;0.40;;;4.00;95.80;;;;;;4956070;28;20185;-74
2021/12/07 08:12:05;;;;;;;0.40;0.40;;;4.20;95.20;;;;;;4955853;28;20207;-74
2021/12/07 08:14:31;;;;;;;0.40;0.40;;;4.40;95.30;;;;;;4956014;28;20300;-75
2021/12/07 08:16:57;;;;;;;0.40;0.40;;;4.60;94.90;;;;;;4956031;29;20232;-75
2021/12/07 08:19:22;;;;;;;0.80;0.80;;;4.60;94.40;;;;;;4955799;28;20174;-74
2021/12/07 08:21:48;;;;;;;0.40;0.40;;;4.70;94.40;;;;;;4955820;28;20436;-75
2021/12/07 08:24:14;;;;;;;0.40;0.40;;;4.80;94.20;;;;;;4955711;29;20200;-74
2021/12/07 08:26:40;;;;;;;0.30;0.30;;;4.80;94.10;;;;;;4954459;29;20232;-74
2021/12/07 08:29:06;;;;;;;0.40;0.40;;;4.60;93.60;;;;;;4955571;29;20185;-74
2021/12/07 08:31:32;;;;;;;0.30;0.30;;;4.70;93.80;;;;;;4955938;28;20185;-75
2021/12/07 08:33:58;;;;;;;0.30;0.30;;;4.80;93.70;;;;;;4955505;29;20212;-73
2021/12/07 08:36:24;;;;;;;0.30;0.30;;;4.70;93.70;;;;;;4955679;28;20634;-73
2021/12/07 08:38:50;;;;;;;0.40;0.40;;;4.50;93.70;;;;;;4955359;28;20181;-73
2021/12/07 08:41:16;;;;;;;0.30;0.30;;;4.40;93.90;;;;;;4955438;29;20410;-73
2021/12/07 08:43:42;;;;;;;0.30;0.30;;;4.60;94.00;;;;;;4955461;28;20178;-73
2021/12/07 08:46:10;;;;;;;0.30;0.30;;;4.80;93.60;;;;;;4955654;29;20529;-74
2021/12/07 08:48:36;;;;;;;0.30;0.30;;;5.00;93.40;;;;;;4955188;29;20256;-74
2021/12/07 08:51:04;;;;;;;0.40;0.40;;;5.10;93.50;;;;;;4955516;29;20721;-74
2021/12/07 08:53:30;;;;;;;0.40;0.40;;;5.30;93.80;;;;;;4955207;28;20322;-75
2021/12/07 09:01:30;;;;;;;0.40;0.40;;;5.50;93.20;;;;;;4956287;28;20180;-74
2021/12/07 09:03:57;;;;;;;0.40;0.40;;;5.50;93.00;;;;;;4961613;29;20180;-74
2021/12/07 09:06:24;;;;;;;0.30;0.30;;;5.40;92.70;;;;;;4961674;28;20181;-75
2021/12/07 09:08:49;;;;;;;0.40;0.40;;;5.50;93.00;;;;;;4961489;29;20180;-74
2021/12/07 09:11:16;;;;;;;0.30;0.30;;;5.50;92.90;;;;;;4961578;28;20181;-75
2021/12/07 09:13:43;;;;;;;0.32;0.32;;;5.60;92.90;;;;;;4961471;29;20283;-75
2021/12/07 09:16:10;;;;;;;0.30;0.30;;;5.60;92.60;;;;;;4961714;28;20177;-74
2021/12/07 09:18:36;;;;;;;0.30;0.30;;;5.70;92.60;;;;;;4961450;29;20170;-74
2021/12/07 09:21:03;;;;;;;0.30;0.30;;;5.80;92.60;;;;;;4961497;29;20718;-74
2021/12/07 09:23:29;;;;;;;0.40;0.40;;;5.90;91.90;;;;;;4961326;28;20728;-74
2021/12/07 09:25:55;;;;;;;0.38;0.38;;;6.50;91.90;;;;;;4961563;28;20236;-75
2021/12/07 09:28:21;;;;;;;0.40;0.40;;;7.60;90.50;;;;;;4961185;28;20173;-74
2021/12/07 09:30:51;;;;;;;0.40;0.40;;;8.70;86.60;;;;;;4961588;28;20404;-74
2021/12/07 09:33:18;;;;;;;0.30;0.30;;;9.00;82.50;;;;;;4961227;29;20430;-75
2021/12/07 09:35:44;;;;;;;0.30;0.30;;;8.50;83.00;;;;;;4961493;28;20228;-73
2021/12/07 09:38:11;;;;;;;0.40;0.40;;;8.30;85.10;;;;;;4961199;28;20655;-74
2021/12/07 09:40:38;;;;;;;0.40;0.40;;;8.10;84.30;;;;;;4961526;28;20254;-75
2021/12/07 09:43:04;;;;;;;0.30;0.30;;;7.70;84.40;;;;;;4961435;28;20194;-74
2021/12/07 09:45:31;;;;;;;0.30;0.30;;;7.60;85.40;;;;;;4961301;28;20708;-75
2021/12/07 09:48:00;;;;;;;0.40;0.40;;;7.60;85.60;;;;;;4961324;29;20170;-73
2021/12/07 09:50:29;;;;;;;0.38;0.38;;;7.30;85.30;;;;;;4961346;29;20584;-73
2021/12/07 09:52:54;;;;;;;0.40;0.40;;;7.10;86.60;;;;;;4961240;29;20662;-74
2021/12/07 09:55:20;;;;;;;0.30;0.30;;;7.00;87.30;;;;;;4961330;28;20219;-75
2021/12/07 09:57:48;;;;;;;0.30;0.30;;;7.00;87.60;;;;;;4961126;28;20174;-75
2021/12/07 10:00:18;;;;;;;0.30;0.30;;;6.90;87.80;;;;;;4961060;28;20189;-75
2021/12/07 10:02:44;;;;;;;0.40;0.40;;;6.80;88.90;;;;;;4961311;29;20594;-74
2021/12/07 10:05:11;;;;;;;0.40;0.40;;;6.50;89.80;;;;;;4961255;28;20786;-75
2021/12/07 10:07:37;;;;;;;0.40;0.40;;;6.50;90.50;;;;;;4961075;28;20189;-75
2021/12/07 10:10:09;;;;;;;0.30;0.30;;;6.60;90.30;;;;;;4960031;29;20183;-74
2021/12/07 10:12:36;;;;;;;0.38;0.38;;;6.80;88.70;;;;;;4960359;28;20938;-75
2021/12/07 10:15:07;;;;;;;0.40;0.40;;;7.00;88.10;;;;;;4957888;29;20244;-73
2021/12/07 10:17:37;;;;;;;0.40;0.40;;;7.20;87.50;;;;;;4957813;28;20181;-74
2021/12/07 10:20:38;;;;;;;0.30;0.30;;;7.50;87.70;;;;;;4958144;28;20637;-74
2021/12/07 10:23:27;;;;;;;0.30;0.30;;;7.90;87.30;;;;;;4957896;28;20237;-74
2021/12/07 10:25:56;;;;;;;0.40;0.40;;;7.90;86.60;;;;;;4958097;29;20179;-74
2021/12/07 10:28:33;;;;;;;0.40;0.40;;;7.90;85.70;;;;;;4957709;29;20168;-75
2021/12/07 10:31:17;;;;;;;0.30;0.30;;;8.60;84.10;;;;;;4957934;28;20187;-75
2021/12/07 10:33:53;;;;;;;0.30;0.30;;;9.40;79.90;;;;;;4957852;29;20291;-75
2021/12/07 10:36:23;;;;;;;0.30;0.30;;;9.20;78.60;;;;;;4957930;29;20222;-75
2021/12/07 10:39:11;;;;;;;0.40;0.40;;;8.60;80.20;;;;;;4957585;29;20167;-75
2021/12/07 10:41:43;;;;;;;0.40;0.40;;;7.30;81.60;;;;;;4953666;29;20209;-75
2021/12/07 10:44:12;;;;;;;0.40;0.40;;;6.80;84.70;;;;;;4956354;29;20185;-74
2021/12/07 10:46:42;;;;;;;0.30;0.30;;;6.80;87.80;;;;;;4957544;28;20638;-73
2021/12/07 10:49:23;;;;;;;0.40;0.40;;;7.10;88.80;;;;;;4956149;29;20182;-74
2021/12/07 10:52:18;;;;;;;0.32;0.32;;;7.10;86.30;;;;;;4957444;29;20200;-75
2021/12/07 10:54:56;;;;;;;0.52;0.52;;;7.00;87.90;;;;;;4957324;28;20255;-73
2021/12/07 10:57:33;;;;;;;0.30;0.30;;;6.80;88.30;;;;;;4957334;29;20651;-73
2021/12/07 11:00:04;;;;;;;0.30;0.30;;;6.60;88.70;;;;;;4957142;29;20188;-74
2021/12/07 11:02:34;;;;;;;0.30;0.30;;;6.70;90.00;;;;;;4955828;29;20210;-73
2021/12/07 11:05:02;;;;;;;0.30;0.30;;;7.00;89.40;;;;;;4957373;28;20170;-74
2021/12/07 11:07:30;;;;;;;0.40;0.40;;;7.20;88.70;;;;;;4956967;29;20200;-74
2021/12/07 11:10:14;;;;;;;0.35;0.35;;;7.00;87.30;;;;;;4957133;29;20180;-73
2021/12/07 11:13:10;;;;;;;0.30;0.30;;;6.80;88.00;;;;;;4957011;29;20208;-74
2021/12/07 11:15:52;;;;;;;0.38;0.38;;;6.90;88.80;;;;;;4956984;28;20264;-72
2021/12/07 11:18:24;;;;;;;0.30;0.30;;;7.10;88.70;;;;;;4956737;28;20181;-74
2021/12/07 11:20:52;;;;;;;0.30;0.30;;;7.20;88.50;;;;;;4957529;29;20210;-75
2021/12/07 11:23:28;;;;;;;0.40;0.40;;;7.30;89.10;;;;;;4956623;28;20744;-74
2021/12/07 11:31:15;;;;;;;0.30;0.30;;;6.50;90.20;;;;;;4955242;29;20185;-74
2021/12/07 11:33:41;;;;;;;0.30;0.30;;;6.40;90.50;;;;;;4953901;29;20200;-76
2021/12/07 11:36:27;;;;;;;0.40;0.40;;;6.30;90.50;;;;;;4955360;29;20170;-74
2021/12/07 11:38:55;;;;;;;0.30;0.30;;;6.20;90.70;;;;;;4956880;29;20165;-72
2021/12/07 11:41:25;;;;;;;0.40;0.40;;;5.90;91.00;;;;;;4955136;28;20260;-74
2021/12/07 11:44:01;;;;;;;0.38;0.38;;;6.00;91.00;;;;;;4957172;28;20161;-74
2021/12/07 11:46:28;;;;;;;0.68;0.68;;;6.10;91.10;;;;;;4956762;29;20181;-74
2021/12/07 11:49:10;;;;;;;0.30;0.30;;;6.20;91.20;;;;;;4956468;28;20181;-74
2021/12/07 11:51:37;;;;;;;0.40;0.40;;;6.40;91.10;;;;;;4956694;28;20674;-74
2021/12/07 11:54:03;;;;;;;0.30;0.30;;;6.40;91.00;;;;;;4956670;29;20561;-75
2021/12/07 11:56:30;;;;;;;0.30;0.30;;;6.30;90.90;;;;;;4956276;28;20276;-75
2021/12/07 11:58:56;;;;;;;0.40;0.40;;;6.60;91.10;;;;;;4954597;29;20645;-75
2021/12/07 12:01:22;;;;;;;0.40;0.40;;;6.90;90.60;;;;;;4956207;29;20192;-74
2021/12/07 12:03:48;;;;;;;0.30;0.30;;;7.10;89.90;;;;;;4954897;28;20417;-74
2021/12/07 12:06:14;;;;;;;0.30;0.30;;;7.30;88.90;;;;;;4956136;28;20666;-74
2021/12/07 12:08:40;;;;;;;0.30;0.30;;;7.40;87.10;;;;;;4955898;28;20519;-74
2021/12/07 12:11:30;;;;;;;0.30;0.30;;;7.10;87.60;;;;;;4956051;29;20260;-74
2021/12/07 12:14:10;;;;;;;0.30;0.30;;;7.20;87.60;;;;;;4955885;29;20643;-74
2021/12/07 12:16:42;;;;;;;0.30;0.30;;;7.10;87.70;;;;;;4954726;29;20182;-73
2021/12/07 12:19:30;;;;;;;0.30;0.30;;;7.10;87.60;;;;;;4955830;29;20176;-75
2021/12/07 12:22:34;;;;;;;0.30;0.30;;;7.00;88.60;;;;;;4954380;28;20200;-74
2021/12/07 12:25:05;;;;;;;0.40;0.40;;;6.90;88.60;;;;;;4950702;29;20567;-74
2021/12/07 12:27:34;;;;;;;0.40;0.40;;;6.40;89.00;;;;;;4955656;28;20182;-74
2021/12/07 12:30:04;;;;;;;0.38;0.38;;;6.20;90.10;;;;;;4955578;28;20173;-74
2021/12/07 12:32:36;;;;;;;0.30;0.30;;;6.00;90.70;;;;;;4954159;29;20205;-82
2021/12/07 12:35:08;;;;;;;0.30;0.30;;;6.00;91.10;;;;;;4955655;29;20736;-73
2021/12/07 12:37:34;;;;;;;0.40;0.40;;;6.10;91.40;;;;;;4954857;28;20177;-82
2021/12/07 12:40:03;;;;;;;0.30;0.30;;;6.20;91.50;;;;;;4955569;29;20229;-72
2021/12/07 12:42:48;;;;;;;0.38;0.38;;;6.10;91.10;;;;;;4954617;29;20293;-74
2021/12/07 12:45:31;;;;;;;0.30;0.30;;;5.90;91.40;;;;;;4955344;29;20173;-75
2021/12/07 12:48:06;;;;;;;0.35;0.35;;;5.70;91.80;;;;;;4955461;29;20182;-74
2021/12/07 12:50:37;;;;;;;0.32;0.32;;;5.40;92.10;;;;;;4955103;29;20224;-74
2021/12/07 12:53:13;;;;;;;0.40;0.40;;;5.20;92.30;;;;;;4954750;29;20201;-74
2021/12/07 12:55:46;;;;;;;0.30;0.30;;;5.00;92.70;;;;;;4955737;28;20320;-74
2021/12/07 12:58:36;;;;;;;0.40;0.40;;;4.70;93.20;;;;;;4953671;29;20315;-72
2021/12/07 13:01:15;;;;;;;0.40;0.40;;;4.50;93.50;;;;;;4955306;29;20523;-73
2021/12/07 13:03:42;;;;;;;0.40;0.40;;;4.40;93.90;;;;;;4955396;28;20200;-73
2021/12/07 13:06:09;;;;;;;0.40;0.40;;;4.40;94.10;;;;;;4954142;29;20196;-73
2021/12/07 13:08:57;;;;;;;0.30;0.30;;;4.30;94.40;;;;;;4953628;28;20219;-73
2021/12/07 13:11:45;;;;;;;0.40;0.40;;;4.20;94.50;;;;;;4954063;28;20180;-75
2021/12/07 13:14:23;;;;;;;0.30;0.30;;;4.10;94.80;;;;;;4954056;29;20239;-73
2021/12/07 13:16:59;;;;;;;0.30;0.30;;;4.00;95.10;;;;;;4955488;29;20258;-73
2021/12/07 13:19:27;;;;;;;0.30;0.30;;;4.00;95.30;;;;;;4955616;28;20534;-74
2021/12/07 13:21:53;;;;;;;0.30;0.30;;;4.10;95.30;;;;;;4955569;29;20276;-70
2021/12/07 13:24:32;;;;;;;0.37;0.37;;;4.00;95.40;;;;;;4953713;29;20605;-72
2021/12/07 13:26:58;;;;;;;0.30;0.30;;;4.10;95.60;;;;;;4954392;29;20416;-70
2021/12/07 13:29:26;;;;;;;0.40;0.40;;;4.10;95.40;;;;;;4954262;28;20184;-71
2021/12/07 13:31:56;;;;;;;0.40;0.40;;;4.00;95.60;;;;;;4955055;28;20676;-71
2021/12/07 13:34:31;;;;;;;0.40;0.40;;;3.80;95.90;;;;;;4954823;29;20284;-72
2021/12/07 13:37:00;;;;;;;0.40;0.40;;;3.80;96.30;;;;;;4955082;28;20180;-69
2021/12/07 13:39:26;;;;;;;0.40;0.40;;;3.70;96.00;;;;;;4954799;29;20221;-71
2021/12/07 13:42:09;;;;;;;0.30;0.30;;;3.60;96.30;;;;;;4954719;29;20196;-76
2021/12/07 13:44:56;;;;;;;0.30;0.30;;;3.60;96.20;;;;;;4954856;29;20188;-70
2021/12/07 13:47:30;;;;;;;0.30;0.30;;;3.60;96.50;;;;;;4952392;28;20192;-71
2021/12/07 13:50:09;;;;;;;0.30;0.30;;;3.60;96.30;;;;;;4958874;28;20192;-74
2021/12/07 13:52:40;;;;;;;0.40;0.40;;;3.50;96.40;;;;;;4957265;28;20292;-71
2021/12/07 13:55:12;;;;;;;0.40;0.40;;;3.50;96.50;;;;;;4958946;28;20210;-71
2021/12/07 13:57:40;;;;;;;0.40;0.40;;;3.50;96.50;;;;;;4958402;29;20703;-70
2021/12/07 14:00:10;;;;;;;0.40;0.40;;;3.50;96.60;;;;;;4958464;28;20275;-73
2021/12/07 14:02:37;;;;;;;0.40;0.40;;;3.40;96.50;;;;;;4958168;29;20215;-71
2021/12/07 14:05:13;;;;;;;0.38;0.38;;;3.40;96.60;;;;;;4958192;29;20276;-70
2021/12/07 14:07:40;;;;;;;0.40;0.40;;;3.30;96.80;;;;;;4958207;29;20183;-73
2021/12/07 14:10:19;;;;;;;0.40;0.40;;;3.30;96.90;;;;;;4958698;28;20178;-70
2021/12/07 14:12:48;;;;;;;0.30;0.30;;;3.30;96.90;;;;;;4958556;28;20661;-70
2021/12/07 14:15:23;;;;;;;0.40;0.40;;;3.20;97.00;;;;;;4956665;29;20205;-74
2021/12/07 14:17:59;;;;;;;0.30;0.30;;;3.20;97.30;;;;;;4958161;29;20180;-71
2021/12/07 14:20:27;;;;;;;0.40;0.40;;;3.20;97.50;;;;;;4958313;28;20175;-72
2021/12/07 14:22:53;;;;;;;0.38;0.38;;;3.30;97.50;;;;;;4958091;29;20208;-73
2021/12/07 14:25:19;;;;;;;0.40;0.40;;;3.20;97.30;;;;;;4957930;29;20185;-71
2021/12/07 14:27:48;;;;;;;0.30;0.30;;;3.20;97.30;;;;;;4957677;29;20264;-69
2021/12/07 14:30:15;;;;;;;0.40;0.40;;;3.20;97.30;;;;;;4957916;29;20176;-72
2021/12/07 14:32:42;;;;;;;0.40;0.40;;;3.10;97.40;;;;;;4957871;29;20644;-72
2021/12/07 14:35:10;;;;;;;0.40;0.40;;;3.10;97.60;;;;;;4956486;28;20552;-71
2021/12/07 14:37:37;;;;;;;0.40;0.40;;;3.10;97.50;;;;;;4957463;28;20590;-77
2021/12/07 14:40:06;;;;;;;0.30;0.30;;;3.10;97.10;;;;;;4956875;29;20199;-70
2021/12/07 14:42:33;;;;;;;0.40;0.40;;;3.10;97.10;;;;;;4957428;29;20254;-73
2021/12/07 14:44:59;;;;;;;0.40;0.40;;;2.80;97.20;;;;;;4958265;28;20575;-70